createdAt,value
2023-09-05T00:01:43.250Z,2.97
2023-09-05T00:03:45.866Z,2.85
2023-09-05T00:05:49.475Z,3.08
2023-09-05T00:07:51.976Z,3.20
2023-09-05T00:09:58.429Z,3.28
2023-09-05T00:12:02.012Z,3.10
2023-09-05T00:14:04.552Z,2.88
2023-09-05T00:16:07.145Z,2.90
2023-09-05T00:18:09.695Z,3.00
2023-09-05T00:20:16.587Z,3.00
2023-09-05T00:22:19.789Z,3.33
2023-09-05T00:24:26.399Z,3.13
2023-09-05T00:26:30.374Z,3.42
2023-09-05T00:28:34.346Z,3.50
2023-09-05T00:30:36.853Z,3.60
2023-09-05T00:32:41.834Z,3.40
2023-09-05T00:34:44.370Z,3.00
2023-09-05T00:36:49.953Z,3.47
2023-09-05T00:38:52.392Z,3.38
2023-09-05T00:40:54.988Z,3.05
2023-09-05T00:42:59.442Z,3.38
2023-09-05T00:45:01.944Z,3.42
2023-09-05T00:47:05.339Z,3.35
2023-09-05T00:49:06.918Z,3.00
2023-09-05T00:51:10.562Z,3.03
2023-09-05T00:53:13.231Z,3.47
2023-09-05T00:55:16.725Z,3.42
2023-09-05T00:57:18.832Z,3.20
2023-09-05T00:59:23.429Z,3.30
2023-09-05T01:01:25.949Z,3.20
2023-09-05T01:03:29.161Z,2.97
2023-09-05T01:05:35.754Z,3.38
2023-09-05T01:08:04.120Z,3.47
2023-09-05T01:10:12.648Z,3.03
2023-09-05T01:12:15.635Z,3.10
2023-09-05T01:14:18.538Z,3.13
2023-09-05T01:16:22.338Z,3.05
2023-09-05T01:18:25.178Z,3.40
2023-09-05T01:20:37.659Z,3.10
2023-09-05T01:22:50.692Z,2.97
2023-09-05T01:26:58.476Z,3.55
2023-09-05T01:29:01.599Z,3.40
2023-09-05T01:31:06.532Z,2.90
2023-09-05T01:33:09.301Z,3.40
2023-09-05T01:35:11.848Z,3.53
2023-09-05T01:37:15.368Z,3.50
2023-09-05T01:39:17.151Z,3.50
2023-09-05T01:41:20.952Z,3.47
2023-09-05T01:43:23.840Z,3.20
2023-09-05T01:45:26.643Z,3.17
2023-09-05T01:47:29.320Z,3.75
2023-09-05T01:49:31.981Z,3.45
2023-09-05T01:51:34.529Z,3.40
2023-09-05T01:53:37.085Z,3.50
2023-09-05T01:55:39.574Z,3.40
2023-09-05T01:57:43.548Z,3.00
2023-09-05T01:59:46.103Z,3.25
2023-09-05T02:01:48.606Z,3.45
2023-09-05T02:03:51.501Z,3.47
2023-09-05T02:05:54.082Z,3.20
2023-09-05T02:07:57.427Z,3.50
2023-09-05T02:10:00.235Z,3.33
2023-09-05T02:12:02.736Z,3.65
2023-09-05T02:14:06.838Z,3.67
2023-09-05T02:16:09.533Z,3.88
2023-09-05T02:18:12.320Z,3.30
2023-09-05T02:20:15.109Z,3.42
2023-09-05T02:22:17.647Z,3.53
2023-09-05T02:24:20.152Z,3.72
2023-09-05T02:26:23.120Z,3.53
2023-09-05T02:28:24.851Z,3.38
2023-09-05T02:30:32.024Z,3.30
2023-09-05T02:32:34.727Z,3.58
2023-09-05T02:34:37.224Z,3.10
2023-09-05T02:36:39.887Z,3.35
2023-09-05T02:38:42.394Z,3.40
2023-09-05T02:40:45.091Z,3.20
2023-09-05T02:42:47.568Z,3.63
2023-09-05T02:44:52.108Z,3.70
2023-09-05T02:46:56.078Z,3.58
2023-09-05T02:48:58.591Z,3.40
2023-09-05T02:51:04.911Z,3.28
2023-09-05T02:53:09.905Z,3.40
2023-09-05T02:55:12.425Z,3.45
2023-09-05T02:57:13.948Z,3.45
2023-09-05T02:59:16.379Z,3.63
2023-09-05T03:01:18.988Z,4.00
2023-09-05T03:03:21.911Z,3.38
2023-09-05T03:05:24.362Z,3.47
2023-09-05T03:07:26.816Z,3.53
2023-09-05T03:09:29.461Z,3.40
2023-09-05T03:11:31.961Z,3.53
2023-09-05T03:13:34.677Z,3.67
2023-09-05T03:15:36.289Z,3.72
2023-09-05T03:17:38.940Z,3.38
2023-09-05T03:19:41.962Z,3.60
2023-09-05T03:21:44.473Z,3.58
2023-09-05T03:23:47.026Z,3.83
2023-09-05T03:25:49.636Z,3.80
2023-09-05T03:27:52.224Z,3.75
2023-09-05T03:29:53.713Z,3.60
2023-09-05T03:31:56.628Z,3.90
2023-09-05T03:33:59.214Z,2.88
2023-09-05T03:36:03.027Z,3.50
2023-09-05T03:38:07.159Z,3.83
2023-09-05T03:40:11.618Z,3.53
2023-09-05T03:42:14.170Z,3.80
2023-09-05T03:44:17.987Z,3.53
2023-09-05T03:46:20.525Z,3.63
2023-09-05T03:48:23.204Z,4.18
2023-09-05T03:50:25.775Z,3.58
2023-09-05T03:52:29.581Z,3.42
2023-09-05T03:54:32.034Z,2.90
2023-09-05T03:56:34.535Z,3.30
2023-09-05T03:58:36.422Z,4.00
2023-09-05T04:00:39.116Z,3.50
2023-09-05T04:02:41.902Z,3.58
2023-09-05T04:04:44.545Z,3.25
2023-09-05T04:06:47.032Z,3.53
2023-09-05T04:08:50.856Z,3.50
2023-09-05T04:10:58.007Z,3.35
2023-09-05T04:13:00.487Z,3.03
2023-09-05T04:15:02.990Z,4.30
2023-09-05T04:17:05.686Z,3.22
2023-09-05T04:19:09.387Z,3.25
2023-09-05T04:21:12.175Z,3.45
2023-09-05T04:23:14.660Z,3.25
2023-09-05T04:25:18.792Z,3.33
2023-09-05T04:27:22.889Z,4.45
2023-09-05T04:29:25.492Z,3.40
2023-09-05T04:31:28.067Z,3.70
2023-09-05T04:33:33.061Z,3.80
2023-09-05T04:35:38.707Z,3.30
2023-09-05T04:37:41.323Z,3.50
2023-09-05T04:39:43.856Z,2.88
2023-09-05T04:41:47.946Z,3.40
2023-09-05T04:43:50.569Z,3.60
2023-09-05T04:45:56.401Z,3.47
2023-09-05T04:47:58.981Z,2.97
2023-09-05T04:50:01.615Z,3.47
2023-09-05T04:52:04.513Z,3.75
2023-09-05T04:54:08.956Z,3.58
2023-09-05T04:56:11.439Z,3.40
2023-09-05T04:58:15.260Z,3.47
2023-09-05T05:00:19.254Z,3.20
2023-09-05T05:02:21.747Z,3.20
2023-09-05T05:04:24.280Z,3.60
2023-09-05T05:06:29.989Z,3.63
2023-09-05T05:08:32.516Z,3.42
2023-09-05T05:10:36.704Z,3.20
2023-09-05T05:12:39.191Z,3.38
2023-09-05T05:14:43.071Z,3.42
2023-09-05T05:16:45.822Z,3.20
2023-09-05T05:18:48.359Z,3.50
2023-09-05T05:20:50.876Z,3.47
2023-09-05T05:22:53.389Z,3.75
2023-09-05T05:24:55.825Z,2.95
2023-09-05T05:26:58.396Z,3.60
2023-09-05T05:29:01.086Z,3.45
2023-09-05T05:31:05.136Z,3.78
2023-09-05T05:33:07.744Z,4.25
2023-09-05T05:35:11.488Z,3.58
2023-09-05T05:37:14.007Z,3.72
2023-09-05T05:39:16.625Z,3.72
2023-09-05T05:41:19.153Z,3.63
2023-09-05T05:43:21.671Z,4.05
2023-09-05T05:45:24.172Z,3.45
2023-09-05T05:47:28.159Z,3.90
2023-09-05T05:49:30.728Z,3.92
2023-09-05T05:51:33.658Z,3.85
2023-09-05T05:53:36.205Z,3.50
2023-09-05T05:55:38.759Z,3.38
2023-09-05T05:57:41.237Z,3.40
2023-09-05T05:59:43.727Z,3.72
2023-09-05T06:01:45.374Z,3.40
2023-09-05T06:03:49.291Z,3.63
2023-09-05T06:05:52.806Z,3.88
2023-09-05T06:07:57.199Z,3.30
2023-09-05T06:09:59.954Z,3.42
2023-09-05T06:12:02.644Z,3.45
2023-09-05T06:14:05.186Z,3.33
2023-09-05T06:16:07.833Z,3.67
2023-09-05T06:18:10.454Z,3.78
2023-09-05T06:20:14.889Z,3.60
2023-09-05T06:22:16.444Z,2.85
2023-09-05T06:24:19.674Z,3.47
2023-09-05T06:26:22.190Z,3.25
2023-09-05T06:28:26.105Z,3.17
2023-09-05T06:30:28.999Z,2.85
2023-09-05T06:32:31.503Z,3.20
2023-09-05T06:34:34.057Z,3.33
2023-09-05T06:36:40.764Z,2.75
2023-09-05T06:38:43.848Z,3.10
2023-09-05T06:40:46.350Z,3.30
2023-09-05T06:42:48.786Z,3.47
2023-09-05T06:44:54.362Z,3.20
2023-09-05T06:46:56.827Z,3.05
2023-09-05T06:48:59.344Z,3.10
2023-09-05T06:51:00.958Z,3.63
2023-09-05T06:53:05.613Z,3.15
2023-09-05T06:55:07.794Z,3.35
2023-09-05T06:57:10.395Z,2.80
2023-09-05T06:59:17.890Z,3.35
2023-09-05T07:01:20.537Z,3.30
2023-09-05T07:03:23.594Z,3.65
2023-09-05T07:05:26.601Z,2.72
2023-09-05T07:07:28.244Z,3.35
2023-09-05T07:09:32.342Z,3.47
2023-09-05T07:11:34.366Z,2.72
2023-09-05T07:13:36.835Z,3.28
2023-09-05T07:15:39.332Z,3.30
2023-09-05T07:17:41.860Z,3.03
2023-09-05T07:19:44.745Z,3.05
2023-09-05T07:21:47.381Z,3.20
2023-09-05T07:23:49.940Z,3.42
2023-09-05T07:25:53.805Z,3.42
2023-09-05T07:27:56.500Z,2.92
2023-09-05T07:29:58.216Z,3.05
2023-09-05T07:32:02.738Z,3.13
2023-09-05T07:34:05.658Z,3.03
2023-09-05T07:36:08.874Z,3.45
2023-09-05T07:38:13.246Z,3.17
2023-09-05T07:40:16.037Z,2.55
2023-09-05T07:42:22.528Z,3.40
2023-09-05T07:44:24.995Z,3.45
2023-09-05T07:46:28.220Z,3.13
2023-09-05T07:48:30.842Z,3.97
2023-09-05T07:50:35.891Z,2.63
2023-09-05T07:52:38.498Z,3.15
2023-09-05T07:54:40.386Z,3.25
2023-09-05T07:56:42.883Z,2.95
2023-09-05T07:58:46.720Z,3.83
2023-09-05T08:00:50.909Z,2.97
2023-09-05T08:02:55.878Z,3.38
2023-09-05T08:05:00.702Z,3.30
2023-09-05T08:07:03.213Z,2.80
2023-09-05T08:09:05.728Z,3.03
2023-09-05T08:11:08.548Z,3.08
2023-09-05T08:13:11.196Z,3.20
2023-09-05T08:15:15.227Z,3.30
2023-09-05T08:17:16.894Z,3.40
2023-09-05T08:19:19.380Z,2.75
2023-09-05T08:21:22.933Z,2.58
2023-09-05T08:23:25.468Z,3.10
2023-09-05T08:25:28.062Z,2.75
2023-09-05T08:27:30.672Z,3.47
2023-09-05T08:29:33.342Z,3.40
2023-09-05T08:31:38.105Z,3.35
2023-09-05T08:33:40.675Z,3.10
2023-09-05T08:35:43.193Z,3.00
2023-09-05T08:37:44.794Z,2.90
2023-09-05T08:39:47.427Z,2.90
2023-09-05T08:41:49.983Z,3.40
2023-09-05T08:43:56.033Z,3.10
2023-09-05T08:46:01.825Z,3.30
2023-09-05T08:48:07.235Z,2.72
2023-09-05T08:50:09.872Z,3.03
2023-09-05T08:52:18.255Z,3.25
2023-09-05T08:54:26.864Z,3.17
2023-09-05T08:56:29.665Z,2.80
2023-09-05T08:58:33.985Z,3.25
2023-09-05T09:00:39.302Z,3.42
2023-09-05T09:02:41.921Z,3.30
2023-09-05T09:04:52.785Z,2.97
2023-09-05T09:06:58.930Z,2.85
2023-09-05T09:09:01.499Z,2.97
2023-09-05T09:11:08.007Z,2.70
2023-09-05T09:15:19.963Z,2.72
2023-09-05T09:17:24.915Z,3.00
2023-09-05T09:19:28.681Z,2.97
2023-09-05T09:21:32.932Z,3.30
2023-09-05T09:23:36.534Z,3.15
2023-09-05T09:25:48.365Z,2.92
2023-09-05T09:27:52.384Z,3.78
2023-09-05T09:29:56.360Z,2.88
2023-09-05T09:32:04.377Z,3.33
2023-09-05T09:34:07.351Z,3.22
2023-09-05T09:36:12.583Z,3.10
2023-09-05T09:38:16.428Z,3.15
2023-09-05T09:40:19.065Z,3.40
2023-09-05T09:42:24.369Z,3.58
2023-09-05T09:44:27.803Z,3.33
2023-09-05T09:46:30.826Z,3.25
2023-09-05T09:48:36.023Z,3.13
2023-09-05T09:50:38.917Z,3.03
2023-09-05T09:52:45.349Z,3.25
2023-09-05T09:54:52.054Z,3.25
2023-09-05T09:56:55.492Z,3.80
2023-09-05T09:59:00.150Z,3.38
2023-09-05T10:01:05.125Z,3.20
2023-09-05T10:03:09.744Z,3.55
2023-09-05T10:05:13.572Z,3.10
2023-09-05T10:07:17.461Z,3.67
2023-09-05T10:09:21.043Z,3.30
2023-09-05T10:11:25.597Z,2.60
2023-09-05T10:13:31.425Z,2.83
2023-09-05T10:15:34.455Z,3.28
2023-09-05T10:17:37.803Z,3.25
2023-09-05T10:19:42.768Z,2.83
2023-09-05T10:21:48.735Z,3.10
2023-09-05T10:23:54.210Z,3.00
2023-09-05T10:25:58.356Z,3.42
2023-09-05T10:28:02.346Z,2.88
2023-09-05T10:30:05.516Z,2.83
2023-09-05T10:32:09.007Z,3.42
2023-09-05T10:34:11.631Z,3.42
2023-09-05T10:36:42.079Z,3.13
2023-09-05T10:38:44.632Z,3.40
2023-09-05T10:40:46.237Z,3.17
2023-09-05T10:42:52.581Z,2.85
2023-09-05T10:44:56.527Z,3.08
2023-09-05T10:47:25.587Z,2.80
2023-09-05T10:49:31.200Z,2.97
2023-09-05T10:51:32.729Z,3.05
2023-09-05T10:53:36.313Z,2.85
2023-09-05T10:55:45.850Z,3.03
2023-09-05T10:57:51.299Z,2.63
2023-09-05T10:59:54.582Z,2.65
2023-09-05T11:02:02.908Z,2.85
2023-09-05T11:04:08.522Z,2.67
2023-09-05T11:06:13.949Z,2.40
2023-09-05T11:08:25.929Z,2.53
2023-09-05T11:10:29.893Z,2.75
2023-09-05T11:12:32.802Z,3.05
2023-09-05T11:14:35.400Z,3.20
2023-09-05T11:16:48.280Z,2.17
2023-09-05T11:18:57.018Z,2.40
2023-09-05T11:21:00.215Z,3.28
2023-09-05T11:23:11.938Z,3.00
2023-09-05T11:25:14.414Z,2.97
2023-09-05T11:27:22.319Z,3.20
2023-09-05T11:29:25.472Z,2.75
2023-09-05T11:31:28.863Z,2.50
2023-09-05T11:33:31.494Z,2.72
2023-09-05T11:35:36.901Z,2.50
2023-09-05T11:37:39.488Z,2.40
2023-09-05T11:39:41.082Z,3.17
2023-09-05T11:41:43.673Z,2.92
2023-09-05T11:43:47.227Z,2.50
2023-09-05T11:45:53.952Z,2.58
2023-09-05T11:47:56.616Z,2.28
2023-09-05T11:50:00.351Z,2.40
2023-09-05T11:52:04.482Z,2.35
2023-09-05T11:54:07.245Z,2.45
2023-09-05T11:56:10.294Z,2.97
2023-09-05T11:58:14.818Z,2.70
2023-09-05T12:00:17.692Z,2.60
2023-09-05T12:02:20.341Z,2.70
2023-09-05T12:04:23.665Z,3.90
2023-09-05T12:06:25.437Z,2.55
2023-09-05T12:08:36.359Z,2.80
2023-09-05T12:10:41.960Z,2.90
2023-09-05T12:12:53.874Z,2.88
2023-09-05T12:14:58.336Z,2.47
2023-09-05T12:17:01.007Z,3.03
2023-09-05T12:19:04.659Z,2.55
2023-09-05T12:21:07.156Z,2.88
2023-09-05T12:23:09.679Z,2.50
2023-09-05T12:25:20.316Z,2.70
2023-09-05T12:27:26.744Z,2.70
2023-09-05T12:29:39.298Z,2.47
2023-09-05T12:31:41.927Z,2.15
2023-09-05T12:33:44.493Z,2.45
2023-09-05T12:35:47.341Z,2.47
2023-09-05T12:37:50.031Z,2.40
2023-09-05T12:39:57.551Z,2.08
2023-09-05T12:42:01.108Z,2.13
2023-09-05T12:44:03.638Z,2.30
2023-09-05T12:46:06.160Z,2.50
2023-09-05T12:48:09.648Z,2.83
2023-09-05T12:50:13.596Z,2.10
2023-09-05T12:52:16.189Z,2.28
2023-09-05T12:54:18.690Z,2.28
2023-09-05T12:56:21.221Z,2.30
2023-09-05T12:58:25.212Z,2.38
2023-09-05T13:00:27.781Z,2.20
2023-09-05T13:02:30.332Z,2.38
2023-09-05T13:04:32.849Z,2.15
2023-09-05T13:06:35.428Z,2.40
2023-09-05T13:08:37.024Z,2.28
2023-09-05T13:10:39.671Z,2.63
2023-09-05T13:12:42.243Z,2.45
2023-09-05T13:14:46.482Z,2.05
2023-09-05T13:16:49.031Z,2.30
2023-09-05T13:18:51.613Z,2.47
2023-09-05T13:20:54.177Z,2.40
2023-09-05T13:22:57.423Z,2.20
2023-09-05T13:25:00.731Z,2.75
2023-09-05T13:27:03.618Z,1.92
2023-09-05T13:29:06.074Z,2.67
2023-09-05T13:31:09.928Z,2.58
2023-09-05T13:33:12.613Z,2.33
2023-09-05T13:35:15.389Z,2.30
2023-09-05T13:37:17.943Z,2.50
2023-09-05T13:39:20.593Z,2.50
2023-09-05T13:41:23.175Z,2.40
2023-09-05T13:43:25.737Z,2.40
2023-09-05T13:45:28.629Z,2.30
2023-09-05T13:47:34.099Z,2.63
2023-09-05T13:49:36.714Z,2.33
2023-09-05T13:51:39.275Z,2.60
2023-09-05T13:53:41.868Z,2.40
2023-09-05T13:55:45.247Z,2.38
2023-09-05T13:57:50.233Z,2.60
2023-09-05T13:59:53.050Z,2.58
2023-09-05T14:01:55.639Z,2.55
2023-09-05T14:03:58.652Z,2.38
2023-09-05T14:06:01.398Z,2.47
2023-09-05T14:08:03.966Z,2.10
2023-09-05T14:10:07.533Z,2.75
2023-09-05T14:12:10.329Z,2.40
2023-09-05T14:14:16.691Z,2.58
2023-09-05T14:18:23.220Z,2.20
2023-09-05T14:20:28.776Z,2.40
2023-09-05T14:22:31.245Z,2.28
2023-09-05T14:24:32.873Z,2.40
2023-09-05T14:26:35.490Z,2.60
2023-09-05T14:28:38.003Z,2.47
2023-09-05T14:30:40.556Z,2.58
2023-09-05T14:32:43.460Z,3.05
2023-09-05T14:34:44.996Z,2.50
2023-09-05T14:36:49.013Z,2.90
2023-09-05T14:38:50.753Z,2.40
2023-09-05T14:40:54.126Z,2.80
2023-09-05T14:42:57.122Z,3.05
2023-09-05T14:44:59.776Z,2.50
2023-09-05T14:47:02.299Z,2.60
2023-09-05T14:49:04.157Z,2.33
2023-09-05T14:51:06.874Z,3.05
2023-09-05T14:53:10.716Z,2.05
2023-09-05T14:55:13.129Z,2.53
2023-09-05T14:57:15.714Z,2.90
2023-09-05T14:59:18.696Z,2.60
2023-09-05T15:01:21.453Z,2.75
2023-09-05T15:03:23.177Z,2.28
2023-09-05T15:05:25.929Z,2.80
2023-09-05T15:07:28.423Z,2.85
2023-09-05T15:09:31.462Z,2.38
2023-09-05T15:11:34.035Z,2.20
2023-09-05T15:13:36.528Z,2.45
2023-09-05T15:15:39.198Z,2.40
2023-09-05T15:17:43.386Z,3.65
2023-09-05T15:19:45.871Z,2.40
2023-09-05T15:21:48.332Z,2.50
2023-09-05T15:23:50.838Z,2.75
2023-09-05T15:25:56.810Z,2.13
2023-09-05T15:27:59.364Z,2.50
2023-09-05T15:30:00.966Z,2.67
2023-09-05T15:32:03.944Z,3.42
2023-09-05T15:34:06.921Z,2.60
2023-09-05T15:36:09.431Z,2.50
2023-09-05T15:38:11.913Z,2.88
2023-09-05T15:40:14.852Z,2.65
2023-09-05T15:42:18.730Z,2.70
2023-09-05T15:44:21.340Z,2.50
2023-09-05T15:46:23.994Z,2.70
2023-09-05T15:48:26.959Z,2.97
2023-09-05T15:50:30.092Z,3.15
2023-09-05T15:52:32.555Z,2.58
2023-09-05T15:54:35.200Z,2.33
2023-09-05T15:56:37.833Z,2.58
2023-09-05T15:58:42.214Z,2.97
2023-09-05T16:00:45.083Z,2.83
2023-09-05T16:02:47.974Z,2.63
2023-09-05T16:04:50.709Z,2.60
2023-09-05T16:06:53.251Z,2.78
2023-09-05T16:08:55.856Z,3.05
2023-09-05T16:11:09.188Z,2.50
2023-09-05T16:13:11.670Z,2.20
2023-09-05T16:15:16.463Z,2.90
2023-09-05T16:17:22.184Z,3.17
2023-09-05T16:19:24.873Z,2.55
2023-09-05T16:21:30.091Z,2.53
2023-09-05T16:23:32.848Z,2.70
2023-09-05T16:25:35.365Z,2.50
2023-09-05T16:27:38.072Z,2.92
2023-09-05T16:29:40.585Z,2.70
2023-09-05T16:31:46.539Z,3.15
2023-09-05T16:33:49.249Z,3.08
2023-09-05T16:36:00.349Z,3.28
2023-09-05T16:38:04.901Z,2.47
2023-09-05T16:40:08.789Z,3.55
2023-09-05T16:42:12.692Z,3.17
2023-09-05T16:44:16.044Z,2.90
2023-09-05T16:46:18.664Z,2.95
2023-09-05T16:48:22.956Z,2.95
2023-09-05T16:50:24.847Z,3.05
2023-09-05T16:52:27.344Z,3.13
2023-09-05T16:54:29.905Z,3.15
2023-09-05T16:56:31.453Z,2.90
2023-09-05T16:58:35.094Z,2.70
2023-09-05T17:00:38.673Z,2.80
2023-09-05T17:02:43.211Z,2.70
2023-09-05T17:04:46.543Z,2.70
2023-09-05T17:06:49.177Z,3.28
2023-09-05T17:08:51.790Z,2.95
2023-09-05T17:10:54.640Z,3.17
2023-09-05T17:12:57.107Z,3.53
2023-09-05T17:14:59.606Z,3.30
2023-09-05T17:17:02.096Z,3.92
2023-09-05T17:19:05.021Z,3.30
2023-09-05T17:21:08.933Z,2.95
2023-09-05T17:23:12.135Z,3.38
2023-09-05T17:25:15.906Z,3.13
2023-09-05T17:27:18.406Z,3.22
2023-09-05T17:29:19.919Z,2.90
2023-09-05T17:31:22.552Z,2.83
2023-09-05T17:33:25.121Z,2.65
2023-09-05T17:35:27.676Z,2.95
2023-09-05T17:37:31.714Z,2.97
2023-09-05T17:39:35.078Z,3.10
2023-09-05T17:41:38.084Z,6.55
2023-09-05T17:43:39.765Z,3.13
2023-09-05T17:45:42.973Z,2.88
2023-09-05T17:47:45.530Z,2.88
2023-09-05T17:49:48.033Z,2.80
2023-09-05T17:51:50.765Z,3.65
2023-09-05T17:53:54.787Z,2.80
2023-09-05T17:55:57.675Z,2.85
2023-09-05T17:58:00.213Z,3.17
2023-09-05T18:00:02.803Z,2.85
2023-09-05T18:02:05.746Z,2.40
2023-09-05T18:04:08.416Z,3.75
2023-09-05T18:06:11.144Z,4.07
2023-09-05T18:08:15.197Z,3.83
2023-09-05T18:10:18.990Z,3.20
2023-09-05T18:12:21.465Z,2.92
2023-09-05T18:14:23.998Z,3.25
2023-09-05T18:16:26.540Z,3.10
2023-09-05T18:18:29.655Z,2.95
2023-09-05T18:20:34.943Z,3.10
2023-09-05T18:22:38.282Z,3.30
2023-09-05T18:24:42.190Z,2.78
2023-09-05T18:26:46.177Z,3.35
2023-09-05T18:28:49.607Z,3.05
2023-09-05T18:30:52.354Z,2.60
2023-09-05T18:32:55.046Z,3.47
2023-09-05T18:34:56.673Z,3.20
2023-09-05T18:36:59.144Z,3.22
2023-09-05T18:39:01.805Z,4.25
2023-09-05T18:41:04.292Z,3.60
2023-09-05T18:43:08.172Z,3.55
2023-09-05T18:45:11.882Z,3.33
2023-09-05T18:47:14.448Z,3.78
2023-09-05T18:49:16.176Z,3.75
2023-09-05T18:51:19.919Z,3.58
2023-09-05T18:53:22.585Z,3.60
2023-09-05T18:55:25.258Z,3.17
2023-09-05T18:57:33.221Z,3.42
2023-09-05T18:59:37.125Z,3.22
2023-09-05T19:01:39.779Z,3.72
2023-09-05T19:03:42.869Z,3.20
2023-09-05T19:05:45.527Z,3.55
2023-09-05T19:07:48.260Z,3.17
2023-09-05T19:09:50.863Z,5.15
2023-09-05T19:11:53.578Z,3.40
2023-09-05T19:13:56.088Z,3.25
2023-09-05T19:16:03.946Z,3.38
2023-09-05T19:18:06.979Z,3.88
2023-09-05T19:20:10.723Z,3.20
2023-09-05T19:22:13.180Z,3.10
2023-09-05T19:24:18.689Z,3.60
2023-09-05T19:26:21.161Z,3.08
2023-09-05T19:28:23.789Z,3.33
2023-09-05T19:30:26.614Z,3.55
2023-09-05T19:32:30.390Z,3.53
2023-09-05T19:34:33.283Z,3.30
2023-09-05T19:36:37.844Z,3.22
2023-09-05T19:38:39.489Z,3.40
2023-09-05T19:40:42.088Z,3.55
2023-09-05T19:42:44.600Z,3.47
2023-09-05T19:44:47.175Z,3.20
2023-09-05T19:46:49.761Z,3.30
2023-09-05T19:48:53.688Z,3.47
2023-09-05T19:50:57.478Z,3.90
2023-09-05T19:53:00.181Z,3.55
2023-09-05T19:55:05.465Z,3.28
2023-09-05T19:57:08.274Z,3.60
2023-09-05T19:59:10.832Z,3.50
2023-09-05T20:01:12.447Z,3.42
2023-09-05T20:03:15.166Z,3.83
2023-09-05T20:05:19.284Z,4.03
2023-09-05T20:07:22.422Z,3.90
2023-09-05T20:09:25.404Z,3.78
2023-09-05T20:11:28.085Z,3.53
2023-09-05T20:13:29.583Z,3.90
2023-09-05T20:15:32.224Z,3.83
2023-09-05T20:17:36.986Z,3.80
2023-09-05T20:19:41.008Z,3.22
2023-09-05T20:21:45.083Z,3.67
2023-09-05T20:23:47.708Z,3.65
2023-09-05T20:25:51.716Z,3.50
2023-09-05T20:27:54.284Z,3.45
2023-09-05T20:29:56.953Z,3.67
2023-09-05T20:31:59.514Z,3.90
2023-09-05T20:34:02.295Z,3.70
2023-09-05T20:36:08.547Z,3.90
2023-09-05T20:38:15.473Z,4.25
2023-09-05T20:40:17.998Z,4.45
2023-09-05T20:42:20.452Z,3.80
2023-09-05T20:44:24.771Z,3.83
2023-09-05T20:46:27.448Z,3.67
2023-09-05T20:48:30.528Z,3.35
2023-09-05T20:50:33.100Z,3.72
2023-09-05T20:52:35.833Z,2.95
2023-09-05T20:54:40.866Z,3.67
2023-09-05T20:56:43.606Z,3.28
2023-09-05T20:58:46.100Z,3.70
2023-09-05T21:00:48.880Z,4.10
2023-09-05T21:02:51.682Z,3.72
2023-09-05T21:04:55.748Z,3.58
2023-09-05T21:06:58.453Z,4.50
2023-09-05T21:09:00.922Z,3.75
2023-09-05T21:11:03.798Z,3.72
2023-09-05T21:13:06.279Z,3.70
2023-09-05T21:15:12.764Z,4.35
2023-09-05T21:17:15.449Z,4.40
2023-09-05T21:19:18.296Z,3.75
2023-09-05T21:21:20.876Z,3.70
2023-09-05T21:23:23.417Z,3.63
2023-09-05T21:25:25.870Z,3.88
2023-09-05T21:27:30.445Z,4.13
2023-09-05T21:29:33.608Z,4.13
2023-09-05T21:31:36.223Z,3.55
2023-09-05T21:33:38.976Z,3.92
2023-09-05T21:35:40.717Z,3.75
2023-09-05T21:37:44.364Z,3.50
2023-09-05T21:39:46.860Z,3.92
2023-09-05T21:41:49.362Z,3.70
2023-09-05T21:43:53.135Z,3.92
2023-09-05T21:45:54.738Z,4.00
2023-09-05T21:47:57.260Z,3.67
2023-09-05T21:49:59.758Z,3.80
2023-09-05T21:52:02.261Z,3.72
2023-09-05T21:54:05.171Z,3.70
2023-09-05T21:56:07.689Z,3.85
2023-09-05T21:58:10.364Z,3.80
2023-09-05T22:00:28.855Z,3.50
2023-09-05T22:02:32.680Z,3.50
2023-09-05T22:04:35.473Z,3.70
2023-09-05T22:06:38.230Z,3.58
2023-09-05T22:08:42.874Z,3.65
2023-09-05T22:10:44.566Z,3.38
2023-09-05T22:12:47.095Z,3.30
2023-09-05T22:14:49.560Z,4.05
2023-09-05T22:16:55.261Z,3.58
2023-09-05T22:19:17.172Z,3.72
2023-09-05T22:21:20.274Z,3.97
2023-09-05T22:23:25.135Z,3.25
2023-09-05T22:25:27.584Z,4.10
2023-09-05T22:27:31.084Z,3.58
2023-09-05T22:29:35.961Z,3.80
2023-09-05T22:31:39.510Z,3.42
2023-09-05T22:33:43.389Z,3.95
2023-09-05T22:35:44.978Z,3.55
2023-09-05T22:37:47.884Z,4.35
2023-09-05T22:39:50.582Z,4.07
2023-09-05T22:41:53.160Z,3.53
2023-09-05T22:43:55.631Z,3.65
2023-09-05T22:45:58.272Z,3.88
2023-09-05T22:48:00.850Z,3.35
2023-09-05T22:50:05.746Z,3.50
2023-09-05T22:52:09.273Z,3.50
2023-09-05T22:54:11.766Z,3.70
2023-09-05T22:56:17.853Z,3.75
2023-09-05T22:58:22.073Z,4.05
2023-09-05T23:00:25.452Z,3.90
2023-09-05T23:02:28.261Z,3.72
2023-09-05T23:04:30.964Z,4.13
2023-09-05T23:06:37.902Z,3.45
2023-09-05T23:08:39.983Z,3.55
2023-09-05T23:10:44.524Z,3.65
2023-09-05T23:12:46.185Z,3.33
2023-09-05T23:14:49.313Z,3.97
2023-09-05T23:16:52.242Z,3.95
2023-09-05T23:18:55.003Z,3.30
2023-09-05T23:20:57.533Z,3.78
2023-09-05T23:23:01.431Z,3.67
2023-09-05T23:25:04.441Z,3.35
2023-09-05T23:27:06.892Z,3.53
2023-09-05T23:29:10.377Z,3.70
2023-09-05T23:31:12.931Z,3.85
2023-09-05T23:33:15.644Z,3.58
2023-09-05T23:35:19.361Z,3.20
2023-09-05T23:37:21.912Z,3.85
2023-09-05T23:39:25.906Z,3.53
2023-09-05T23:41:29.449Z,3.60
2023-09-05T23:43:31.934Z,3.47
2023-09-05T23:45:34.671Z,3.75
2023-09-05T23:47:37.309Z,3.53
2023-09-05T23:49:39.962Z,3.58
2023-09-05T23:51:42.998Z,3.40
2023-09-05T23:53:46.905Z,3.13
2023-09-05T23:55:51.017Z,3.47
2023-09-05T23:57:53.676Z,3.35
2023-09-05T23:59:56.246Z,3.75
